Time;durP1;ratioP1;P1;durP2;ratioP2;P2;SDS_P1;SDS_P2;PMS_P1;PMS_P2;Temp;Humidity;BMP_temperature;BMP_pressure;BME280_temperature;BME280_humidity;BME280_pressure;Samples;Min_cycle;Max_cycle;Signal;HPM_P1;HPM_P2
2024/01/02 00:01:31;;;;;;;0.00;0.00;;;11.40;74.10;;;;;;5085198;28;20239;-26
2024/01/02 00:03:58;;;;;;;0.00;0.00;;;11.40;74.10;;;;;;5077613;28;20203;-26
2024/01/02 00:06:26;;;;;;;0.00;0.00;;;11.40;74.20;;;;;;5077403;28;20293;-26
2024/01/02 00:08:55;;;;;;;0.00;0.00;;;11.40;74.20;;;;;;5084860;28;20242;-26
2024/01/02 00:11:25;;;;;;;0.00;0.00;;;11.40;74.10;;;;;;5082696;28;20252;-26
2024/01/02 00:13:55;;;;;;;0.00;0.00;;;11.40;74.10;;;;;;5085262;28;20206;-26
2024/01/02 00:16:22;;;;;;;0.00;0.00;;;11.40;74.20;;;;;;5084502;28;20191;-27
2024/01/02 00:18:49;;;;;;;0.00;0.00;;;11.40;74.20;;;;;;5085188;28;20229;-27
2024/01/02 00:21:19;;;;;;;0.00;0.00;;;11.40;74.20;;;;;;5081037;28;20653;-27
2024/01/02 00:23:48;;;;;;;0.00;0.00;;;11.40;74.10;;;;;;5086011;28;20209;-27
2024/01/02 00:26:16;;;;;;;0.00;0.00;;;11.40;74.20;;;;;;5079171;28;20243;-26
2024/01/02 00:28:43;;;;;;;0.00;0.00;;;11.40;74.30;;;;;;5087008;28;20211;-27
2024/01/02 00:31:10;;;;;;;0.00;0.00;;;11.40;74.20;;;;;;5084109;28;20221;-27
2024/01/02 00:33:37;;;;;;;0.00;0.00;;;11.40;74.20;;;;;;5084700;28;20710;-26
2024/01/02 00:36:09;;;;;;;0.00;0.00;;;11.40;74.30;;;;;;5061393;28;20266;-26
2024/01/02 00:38:38;;;;;;;0.00;0.00;;;11.40;74.20;;;;;;5084301;28;20215;-27
2024/01/02 00:41:08;;;;;;;0.00;0.00;;;11.40;74.10;;;;;;5087288;28;20306;-27
2024/01/02 00:43:35;;;;;;;0.00;0.00;;;11.40;74.20;;;;;;5078075;28;20242;-26
2024/01/02 00:46:09;;;;;;;0.00;0.00;;;11.40;74.30;;;;;;5086206;28;20207;-26
2024/01/02 00:48:39;;;;;;;0.00;0.00;;;11.40;74.60;;;;;;5084996;28;20271;-26
2024/01/02 00:51:06;;;;;;;0.00;0.00;;;11.40;74.30;;;;;;5085240;28;20214;-26
2024/01/02 00:53:33;;;;;;;0.00;0.00;;;11.30;74.30;;;;;;5063170;28;20582;-26
2024/01/02 00:56:05;;;;;;;0.00;0.00;;;11.30;74.30;;;;;;5085027;28;20204;-26
2024/01/02 00:58:34;;;;;;;0.00;0.00;;;11.30;74.40;;;;;;5087113;28;20300;-27
2024/01/02 01:01:04;;;;;;;0.00;0.00;;;11.30;74.40;;;;;;5075928;28;20199;-26
2024/01/02 01:03:34;;;;;;;0.00;0.00;;;11.30;74.40;;;;;;5062141;28;20660;-26
2024/01/02 01:06:04;;;;;;;0.00;0.00;;;11.30;74.40;;;;;;5082751;28;20713;-26
2024/01/02 01:08:31;;;;;;;0.00;0.00;;;11.30;74.40;;;;;;5084322;28;20300;-26
2024/01/02 01:10:58;;;;;;;0.00;0.00;;;11.40;74.50;;;;;;5083700;28;20243;-27
2024/01/02 01:13:26;;;;;;;0.00;0.00;;;11.40;74.50;;;;;;5084569;28;20650;-27
2024/01/02 01:15:53;;;;;;;0.00;0.00;;;11.30;74.50;;;;;;5077808;28;20202;-26
2024/01/02 01:18:23;;;;;;;0.00;0.00;;;11.40;74.50;;;;;;5080448;28;20223;-26
2024/01/02 01:20:50;;;;;;;0.00;0.00;;;11.30;74.50;;;;;;5083176;28;20309;-26
2024/01/02 01:23:19;;;;;;;0.00;0.00;;;11.30;74.60;;;;;;5082887;28;20653;-27
2024/01/02 01:25:47;;;;;;;0.00;0.00;;;11.40;74.60;;;;;;5084115;28;20200;-26
2024/01/02 01:28:14;;;;;;;0.00;0.00;;;11.40;74.60;;;;;;5084294;28;20214;-27
2024/01/02 01:30:44;;;;;;;0.00;0.00;;;11.40;74.60;;;;;;5080310;28;20611;-27
2024/01/02 01:33:11;;;;;;;0.00;0.00;;;11.40;74.60;;;;;;5083884;28;20210;-27
2024/01/02 01:35:43;;;;;;;0.00;0.00;;;11.40;74.60;;;;;;5083988;28;20297;-26
2024/01/02 01:38:13;;;;;;;0.00;0.00;;;11.40;74.70;;;;;;5082808;28;20219;-27
2024/01/02 01:40:42;;;;;;;0.00;0.00;;;11.40;75.00;;;;;;5085043;28;20301;-27
2024/01/02 01:43:12;;;;;;;0.00;0.00;;;11.40;74.80;;;;;;5085858;28;20616;-27
2024/01/02 01:45:46;;;;;;;0.00;0.00;;;11.40;74.70;;;;;;5081017;28;20218;-27
2024/01/02 01:48:16;;;;;;;0.00;0.00;;;11.40;74.80;;;;;;5081901;28;20209;-27
2024/01/02 01:50:43;;;;;;;0.00;0.00;;;11.50;74.90;;;;;;5082416;28;20212;-27
2024/01/02 01:53:13;;;;;;;0.00;0.00;;;11.50;74.80;;;;;;5083495;28;20198;-27
2024/01/02 01:55:41;;;;;;;0.00;0.00;;;11.50;74.80;;;;;;5084226;28;20210;-27
2024/01/02 01:58:10;;;;;;;0.00;0.00;;;11.50;74.80;;;;;;5077255;28;20226;-27
2024/01/02 02:00:39;;;;;;;0.00;0.00;;;11.50;74.90;;;;;;5080466;28;20223;-27
2024/01/02 02:03:14;;;;;;;0.00;0.00;;;11.50;75.00;;;;;;5082908;28;20244;-27
2024/01/02 02:05:42;;;;;;;0.00;0.00;;;11.50;75.00;;;;;;5082004;28;20322;-27
2024/01/02 02:08:10;;;;;;;0.00;0.00;;;11.50;75.00;;;;;;5081145;28;20204;-27
2024/01/02 02:10:44;;;;;;;0.00;0.00;;;11.50;74.90;;;;;;5081286;28;20230;-27
2024/01/02 02:13:12;;;;;;;0.00;0.00;;;11.60;75.10;;;;;;5083586;28;20565;-27
2024/01/02 02:15:42;;;;;;;0.00;0.00;;;11.60;75.10;;;;;;5083123;28;20209;-27
2024/01/02 02:18:10;;;;;;;0.00;0.00;;;11.60;75.20;;;;;;5084016;28;20208;-27
2024/01/02 02:20:41;;;;;;;0.00;0.00;;;11.60;75.30;;;;;;5081839;28;20222;-27
2024/01/02 02:23:08;;;;;;;0.00;0.00;;;11.60;75.20;;;;;;5084008;28;20672;-27
2024/01/02 02:25:35;;;;;;;0.00;0.00;;;11.60;75.20;;;;;;5079437;28;20731;-27
2024/01/02 02:28:05;;;;;;;0.00;0.00;;;11.70;75.20;;;;;;5083852;28;20206;-27
2024/01/02 02:30:33;;;;;;;0.00;0.00;;;11.70;75.30;;;;;;5081790;28;20317;-27
2024/01/02 02:33:02;;;;;;;0.00;0.00;;;11.70;75.40;;;;;;5082835;28;20295;-27
2024/01/02 02:35:32;;;;;;;0.00;0.00;;;11.70;75.40;;;;;;5085786;28;20205;-27
2024/01/02 02:38:02;;;;;;;0.00;0.00;;;11.70;75.40;;;;;;5084081;28;20199;-27
2024/01/02 02:40:38;;;;;;;0.00;0.00;;;11.80;75.40;;;;;;5085810;28;20764;-27
2024/01/02 02:43:10;;;;;;;0.00;0.00;;;11.70;75.50;;;;;;5081933;28;20666;-27
2024/01/02 02:45:39;;;;;;;0.00;0.00;;;11.80;75.60;;;;;;5080916;28;20207;-27
2024/01/02 02:48:09;;;;;;;0.00;0.00;;;11.80;75.50;;;;;;5083518;28;20215;-26
2024/01/02 02:50:39;;;;;;;0.00;0.00;;;11.80;75.50;;;;;;5081360;28;20200;-27
2024/01/02 02:53:07;;;;;;;0.00;0.00;;;11.80;75.50;;;;;;5080371;28;20201;-27
2024/01/02 02:55:34;;;;;;;0.00;0.00;;;11.80;75.60;;;;;;5081683;28;20230;-26
2024/01/02 02:58:04;;;;;;;0.00;0.00;;;11.90;75.60;;;;;;5084081;28;20226;-27
2024/01/02 03:00:35;;;;;;;0.00;0.00;;;11.90;75.80;;;;;;5064758;28;20198;-27
2024/01/02 03:03:06;;;;;;;0.00;0.00;;;11.90;76.00;;;;;;5071102;28;20208;-27
2024/01/02 03:05:37;;;;;;;0.00;0.00;;;11.90;75.70;;;;;;5082208;28;20239;-27
2024/01/02 03:08:05;;;;;;;0.00;0.00;;;11.90;75.70;;;;;;5083059;28;20301;-27
2024/01/02 03:10:35;;;;;;;0.00;0.00;;;12.00;75.80;;;;;;5064644;28;20257;-27
2024/01/02 03:13:04;;;;;;;0.00;0.00;;;11.90;75.70;;;;;;5081740;28;20217;-27
2024/01/02 03:15:34;;;;;;;0.00;0.00;;;12.00;76.00;;;;;;5083796;28;20207;-27
2024/01/02 03:18:03;;;;;;;0.00;0.00;;;12.00;75.90;;;;;;5084812;28;20210;-27
2024/01/02 03:20:36;;;;;;;0.00;0.00;;;12.00;76.20;;;;;;5085077;28;20215;-27
2024/01/02 03:23:06;;;;;;;0.00;0.00;;;12.00;76.00;;;;;;5084277;28;20316;-27
2024/01/02 03:25:35;;;;;;;0.00;0.00;;;12.10;76.20;;;;;;5084670;28;20578;-26
2024/01/02 03:28:03;;;;;;;0.00;0.00;;;12.10;76.20;;;;;;5097754;28;20196;-27
2024/01/02 03:30:31;;;;;;;0.00;0.00;;;12.10;76.60;;;;;;5095118;28;20227;-27
2024/01/02 03:33:00;;;;;;;0.00;0.00;;;12.10;76.30;;;;;;5083083;28;20211;-26
2024/01/02 03:35:32;;;;;;;0.00;0.00;;;12.20;76.30;;;;;;5069453;28;20680;-26
2024/01/02 03:38:02;;;;;;;0.00;0.00;;;12.10;76.40;;;;;;5082467;28;20292;-26
2024/01/02 03:40:32;;;;;;;0.00;0.00;;;12.10;76.30;;;;;;5079866;28;20688;-27
2024/01/02 03:42:59;;;;;;;0.00;0.00;;;12.20;76.50;;;;;;5088177;28;20186;-26
2024/01/02 03:45:26;;;;;;;0.00;0.00;;;12.20;76.50;;;;;;5074969;28;20712;-26
2024/01/02 03:47:53;;;;;;;0.00;0.00;;;12.20;76.50;;;;;;5085673;28;20748;-26
2024/01/02 03:50:25;;;;;;;0.00;0.00;;;12.30;76.60;;;;;;5080283;28;20219;-26
2024/01/02 03:52:55;;;;;;;0.00;0.00;;;12.30;76.60;;;;;;5079102;28;20299;-26
2024/01/02 03:55:28;;;;;;;0.00;0.00;;;12.40;77.00;;;;;;5084219;28;20210;-26
2024/01/02 03:57:57;;;;;;;0.00;0.00;;;12.30;77.10;;;;;;5069222;28;20218;-26
2024/01/02 04:00:26;;;;;;;0.00;0.00;;;12.40;76.90;;;;;;5084511;28;20229;-26
2024/01/02 04:02:58;;;;;;;0.00;0.00;;;12.40;76.70;;;;;;5078709;28;20215;-26
2024/01/02 04:05:25;;;;;;;0.00;0.00;;;12.50;77.20;;;;;;5081018;28;20600;-26
2024/01/02 04:07:53;;;;;;;0.00;0.00;;;12.50;77.00;;;;;;5086089;28;20211;-26
2024/01/02 04:10:25;;;;;;;0.00;0.00;;;12.50;77.90;;;;;;5080286;28;20905;-26
2024/01/02 04:12:55;;;;;;;0.00;0.00;;;12.60;77.70;;;;;;5082468;28;20223;-26
2024/01/02 04:15:24;;;;;;;0.00;0.00;;;12.60;77.20;;;;;;5084734;28;20207;-26
2024/01/02 04:17:51;;;;;;;0.00;0.00;;;12.60;77.40;;;;;;5087141;28;20214;-26
2024/01/02 04:20:21;;;;;;;0.00;0.00;;;12.60;77.50;;;;;;5084526;28;20324;-26
2024/01/02 04:22:54;;;;;;;0.00;0.00;;;12.70;77.30;;;;;;5066147;28;20215;-26
2024/01/02 04:25:24;;;;;;;0.00;0.00;;;12.70;77.50;;;;;;5086188;28;20210;-26
2024/01/02 04:27:56;;;;;;;0.00;0.00;;;12.70;77.50;;;;;;5087706;28;20202;-26
2024/01/02 04:30:24;;;;;;;0.00;0.00;;;12.80;77.50;;;;;;5084056;28;20228;-26
2024/01/02 04:32:53;;;;;;;0.00;0.00;;;12.80;77.60;;;;;;5085072;28;20219;-26
2024/01/02 04:35:26;;;;;;;0.00;0.00;;;12.80;77.70;;;;;;5087235;28;20673;-26
2024/01/02 04:37:55;;;;;;;0.00;0.00;;;12.90;77.80;;;;;;5086277;28;20203;-26
2024/01/02 04:40:25;;;;;;;0.00;0.00;;;12.90;77.70;;;;;;5086164;28;20230;-26
2024/01/02 04:42:57;;;;;;;0.00;0.00;;;12.90;77.80;;;;;;5087129;28;20202;-26
2024/01/02 04:45:24;;;;;;;0.00;0.00;;;13.00;77.60;;;;;;5085571;28;20692;-26
2024/01/02 04:47:51;;;;;;;0.00;0.00;;;13.00;77.70;;;;;;5085557;28;20218;-26
2024/01/02 04:50:19;;;;;;;0.00;0.00;;;13.00;77.50;;;;;;5068599;28;20211;-26
2024/01/02 04:52:46;;;;;;;0.00;0.00;;;13.00;78.10;;;;;;5080605;28;20210;-26
2024/01/02 04:55:15;;;;;;;0.00;0.00;;;13.10;78.30;;;;;;5085036;28;20227;-26
2024/01/02 04:57:45;;;;;;;0.00;0.00;;;13.10;78.20;;;;;;5084242;28;20211;-25
2024/01/02 05:00:17;;;;;;;0.00;0.00;;;13.10;78.30;;;;;;5084847;28;20337;-26
2024/01/02 05:02:48;;;;;;;0.00;0.00;;;13.20;78.40;;;;;;5075959;28;20198;-26
2024/01/02 05:05:15;;;;;;;0.00;0.00;;;13.20;78.70;;;;;;5083213;28;20258;-26
2024/01/02 05:07:45;;;;;;;0.00;0.00;;;13.20;78.20;;;;;;5083161;28;20294;-26
2024/01/02 05:10:12;;;;;;;0.00;0.00;;;13.20;78.20;;;;;;5075923;28;20662;-26
2024/01/02 05:12:39;;;;;;;0.00;0.00;;;13.30;78.50;;;;;;5080499;28;20289;-25
2024/01/02 05:15:11;;;;;;;0.00;0.00;;;13.30;78.00;;;;;;5072018;28;20230;-25
2024/01/02 05:17:38;;;;;;;0.00;0.00;;;13.30;78.30;;;;;;5077726;28;20227;-26
2024/01/02 05:20:06;;;;;;;0.00;0.00;;;13.40;78.60;;;;;;5080631;28;20748;-26
2024/01/02 05:22:36;;;;;;;0.00;0.00;;;13.40;78.30;;;;;;5082243;28;20203;-25
2024/01/02 05:25:03;;;;;;;0.00;0.00;;;13.40;78.90;;;;;;5082546;28;20215;-25
2024/01/02 05:27:35;;;;;;;0.00;0.00;;;13.40;78.20;;;;;;5085213;28;20199;-25
2024/01/02 05:30:05;;;;;;;0.00;0.00;;;13.40;78.10;;;;;;5080762;28;20230;-26
2024/01/02 05:32:34;;;;;;;0.00;0.00;;;13.40;78.30;;;;;;5078143;28;20238;-25
2024/01/02 05:35:05;;;;;;;0.00;0.00;;;13.40;78.20;;;;;;5079237;28;20731;-25
2024/01/02 05:37:32;;;;;;;0.00;0.00;;;13.40;79.40;;;;;;5084483;28;20279;-25
2024/01/02 05:39:59;;;;;;;0.00;0.00;;;13.50;78.30;;;;;;5082625;28;20230;-25
2024/01/02 05:42:27;;;;;;;0.00;0.00;;;13.50;78.30;;;;;;5083881;28;20206;-26
2024/01/02 05:44:56;;;;;;;0.00;0.00;;;13.50;78.60;;;;;;5080515;28;20412;-26
2024/01/02 05:47:26;;;;;;;0.00;0.00;;;13.50;78.30;;;;;;5083491;28;20624;-26
2024/01/02 05:49:55;;;;;;;0.00;0.00;;;13.60;78.60;;;;;;5084437;28;20679;-25
2024/01/02 05:52:25;;;;;;;0.00;0.00;;;13.60;78.40;;;;;;5082674;28;20209;-25
2024/01/02 05:54:52;;;;;;;0.00;0.00;;;13.60;78.40;;;;;;5066538;28;20210;-25
2024/01/02 05:57:19;;;;;;;0.00;0.00;;;13.60;78.30;;;;;;5081927;28;20203;-26
2024/01/02 05:59:46;;;;;;;0.00;0.00;;;13.70;78.30;;;;;;5083739;28;20221;-25
2024/01/02 06:02:16;;;;;;;0.00;0.00;;;13.70;78.30;;;;;;5079219;28;20194;-26
2024/01/02 06:04:43;;;;;;;0.00;0.00;;;13.70;78.40;;;;;;5084351;28;20726;-26
2024/01/02 06:07:12;;;;;;;0.00;0.00;;;13.70;78.90;;;;;;5060121;28;20231;-26
2024/01/02 06:09:39;;;;;;;0.00;0.00;;;13.70;78.30;;;;;;5075360;28;20191;-26
2024/01/02 06:12:09;;;;;;;0.00;0.00;;;13.70;78.80;;;;;;5082434;28;20199;-25
2024/01/02 06:14:37;;;;;;;0.00;0.00;;;13.80;78.80;;;;;;5077936;28;20206;-26
2024/01/02 06:17:05;;;;;;;0.00;0.00;;;13.80;78.50;;;;;;5081115;28;20252;-25
2024/01/02 06:19:34;;;;;;;0.00;0.00;;;13.80;78.60;;;;;;5080628;28;20316;-26
2024/01/02 06:22:01;;;;;;;0.00;0.00;;;13.80;78.90;;;;;;5084840;28;20617;-26
2024/01/02 06:24:31;;;;;;;0.00;0.00;;;13.80;78.50;;;;;;5083125;28;20781;-25
2024/01/02 06:26:58;;;;;;;0.00;0.00;;;13.80;79.10;;;;;;5085142;28;20710;-25
2024/01/02 06:29:25;;;;;;;0.00;0.00;;;13.90;78.60;;;;;;5080890;28;20207;-26
2024/01/02 06:31:53;;;;;;;0.00;0.00;;;13.90;79.40;;;;;;5079616;28;20668;-25
2024/01/02 06:34:20;;;;;;;0.00;0.00;;;13.90;78.40;;;;;;5075390;28;20229;-26
2024/01/02 06:36:47;;;;;;;0.00;0.00;;;13.90;78.60;;;;;;5083139;28;20206;-25
2024/01/02 06:39:15;;;;;;;0.00;0.00;;;13.90;78.90;;;;;;5083211;28;20206;-26
2024/01/02 06:41:45;;;;;;;0.00;0.00;;;13.90;78.60;;;;;;5079517;28;20297;-26
2024/01/02 06:44:15;;;;;;;0.00;0.00;;;13.90;78.60;;;;;;5083366;28;20199;-26
2024/01/02 06:46:47;;;;;;;0.00;0.00;;;13.90;78.60;;;;;;5077651;28;20206;-26
2024/01/02 06:49:14;;;;;;;0.00;0.00;;;13.90;78.60;;;;;;5081044;28;20202;-25
2024/01/02 06:51:44;;;;;;;0.00;0.00;;;13.90;78.50;;;;;;5065569;28;20220;-26
2024/01/02 06:54:14;;;;;;;0.00;0.00;;;13.90;78.60;;;;;;5088124;28;20214;-26
2024/01/02 06:56:45;;;;;;;0.00;0.00;;;13.90;78.60;;;;;;5083577;28;20197;-26
2024/01/02 06:59:15;;;;;;;0.00;0.00;;;14.00;78.70;;;;;;5086863;28;20281;-26
2024/01/02 07:01:42;;;;;;;0.00;0.00;;;14.00;79.00;;;;;;5066558;28;20207;-25
2024/01/02 07:04:10;;;;;;;0.00;0.00;;;14.00;78.50;;;;;;5085848;28;20201;-25
2024/01/02 07:06:39;;;;;;;0.00;0.00;;;14.00;78.70;;;;;;5085027;28;20473;-25
2024/01/02 07:09:07;;;;;;;0.00;0.00;;;14.00;78.70;;;;;;5085144;28;20620;-26
2024/01/02 07:11:36;;;;;;;0.00;0.00;;;14.00;78.90;;;;;;5082253;28;20258;-26
2024/01/02 07:14:08;;;;;;;0.00;0.00;;;14.00;78.70;;;;;;5085912;28;20195;-25
2024/01/02 07:16:35;;;;;;;0.00;0.00;;;14.00;78.80;;;;;;5088360;28;20238;-25
2024/01/02 07:19:03;;;;;;;0.00;0.00;;;14.00;78.60;;;;;;5088420;28;20296;-25
2024/01/02 07:21:33;;;;;;;0.00;0.00;;;14.00;78.60;;;;;;5087129;28;20590;-26
2024/01/02 07:24:00;;;;;;;0.00;0.00;;;14.00;78.70;;;;;;5085822;28;20206;-25
2024/01/02 07:26:31;;;;;;;0.00;0.00;;;14.00;78.80;;;;;;5084259;28;20546;-26
2024/01/02 07:28:59;;;;;;;0.00;0.00;;;14.00;78.70;;;;;;5088552;28;20211;-25
2024/01/02 07:31:32;;;;;;;0.00;0.00;;;14.00;78.70;;;;;;5088692;28;20210;-26
2024/01/02 07:33:59;;;;;;;0.00;0.00;;;14.00;78.50;;;;;;5084748;28;20202;-25
2024/01/02 07:36:29;;;;;;;0.00;0.00;;;14.10;78.80;;;;;;5086202;28;20667;-26
2024/01/02 07:38:59;;;;;;;0.00;0.00;;;14.00;78.90;;;;;;5085220;28;20195;-25
2024/01/02 07:41:26;;;;;;;0.00;0.00;;;14.10;78.80;;;;;;5089935;28;20226;-25
2024/01/02 07:43:53;;;;;;;0.00;0.00;;;14.10;78.80;;;;;;5089904;28;20556;-26
2024/01/02 07:46:23;;;;;;;0.00;0.00;;;14.10;79.70;;;;;;5086462;28;20769;-25
2024/01/02 07:48:53;;;;;;;0.00;0.00;;;14.10;78.80;;;;;;5067339;28;20202;-25
2024/01/02 07:51:22;;;;;;;0.00;0.00;;;14.10;79.00;;;;;;5086351;28;20665;-25
2024/01/02 07:53:52;;;;;;;0.00;0.00;;;14.10;78.90;;;;;;5086501;28;20226;-25
2024/01/02 07:56:21;;;;;;;0.00;0.00;;;14.10;78.90;;;;;;5086744;28;20218;-25
2024/01/02 07:58:48;;;;;;;0.00;0.00;;;14.10;79.00;;;;;;5085750;28;20218;-25
2024/01/02 08:01:17;;;;;;;0.00;0.00;;;14.10;78.80;;;;;;5087701;28;20222;-25
2024/01/02 08:03:44;;;;;;;0.00;0.00;;;14.10;78.90;;;;;;5087046;28;20274;-25
2024/01/02 08:06:13;;;;;;;0.00;0.00;;;14.10;78.90;;;;;;5062930;28;20297;-25
2024/01/02 08:08:40;;;;;;;0.00;0.00;;;14.10;78.90;;;;;;5083045;28;20227;-26
2024/01/02 08:11:12;;;;;;;0.00;0.00;;;14.20;78.90;;;;;;5086822;28;20203;-26
2024/01/02 08:13:45;;;;;;;0.00;0.00;;;14.20;79.10;;;;;;5087513;28;20218;-26
2024/01/02 08:16:16;;;;;;;0.00;0.00;;;14.20;78.90;;;;;;5087050;28;20199;-25
2024/01/02 08:18:46;;;;;;;0.00;0.00;;;14.20;79.00;;;;;;5082799;28;20244;-25
2024/01/02 08:21:13;;;;;;;0.00;0.00;;;14.20;78.90;;;;;;5085253;28;20246;-25
2024/01/02 08:23:43;;;;;;;0.00;0.00;;;14.20;79.10;;;;;;5083239;28;20199;-26
2024/01/02 08:26:13;;;;;;;0.00;0.00;;;14.20;79.00;;;;;;5086967;28;20194;-25
2024/01/02 08:28:41;;;;;;;0.00;0.00;;;14.20;79.00;;;;;;5084742;28;20569;-26
2024/01/02 08:31:11;;;;;;;0.00;0.00;;;14.20;79.10;;;;;;5085549;28;20226;-25
2024/01/02 08:33:40;;;;;;;0.00;0.00;;;14.20;79.00;;;;;;5084957;28;20211;-39
2024/01/02 08:36:11;;;;;;;0.00;0.00;;;14.20;79.00;;;;;;5081807;28;20207;-38
2024/01/02 08:38:41;;;;;;;0.00;0.00;;;14.20;79.20;;;;;;5085193;28;21016;-39
2024/01/02 08:41:08;;;;;;;0.00;0.00;;;14.20;79.30;;;;;;5083220;28;20988;-38
2024/01/02 08:43:38;;;;;;;0.00;0.00;;;14.20;79.30;;;;;;5087234;28;20195;-38
2024/01/02 08:46:07;;;;;;;0.00;0.00;;;14.20;79.20;;;;;;5085546;28;20199;-38
2024/01/02 08:48:35;;;;;;;0.00;0.00;;;14.20;79.00;;;;;;5084456;28;21140;-39
2024/01/02 08:51:05;;;;;;;0.00;0.00;;;14.20;79.10;;;;;;5084065;28;20205;-38
2024/01/02 08:53:37;;;;;;;0.00;0.00;;;14.20;79.30;;;;;;5085546;28;20639;-38
2024/01/02 08:56:04;;;;;;;0.00;0.00;;;14.20;79.30;;;;;;5082063;28;20589;-38
2024/01/02 08:58:34;;;;;;;0.00;0.00;;;14.20;79.20;;;;;;5085364;28;20590;-38
2024/01/02 09:01:01;;;;;;;0.00;0.00;;;14.20;79.10;;;;;;5081753;28;20310;-38
2024/01/02 09:03:30;;;;;;;0.00;0.00;;;14.20;79.20;;;;;;5080288;28;20201;-38
2024/01/02 09:05:57;;;;;;;0.00;0.00;;;14.20;79.20;;;;;;5085008;28;20254;-39
2024/01/02 09:08:25;;;;;;;0.00;0.00;;;14.20;79.20;;;;;;5080166;28;20725;-39
2024/01/02 09:10:56;;;;;;;0.00;0.00;;;14.20;79.20;;;;;;5082735;28;20203;-39
2024/01/02 09:13:23;;;;;;;0.00;0.00;;;14.20;79.10;;;;;;5078965;28;20213;-39
2024/01/02 09:15:55;;;;;;;0.00;0.00;;;14.20;79.20;;;;;;5074161;28;20344;-39
2024/01/02 09:18:29;;;;;;;0.00;0.00;;;14.20;79.10;;;;;;5081451;28;20675;-39
2024/01/02 09:20:57;;;;;;;0.00;0.00;;;14.20;79.10;;;;;;5085107;28;20307;-39
2024/01/02 09:23:29;;;;;;;0.00;0.00;;;14.20;79.00;;;;;;5083193;28;20757;-38
2024/01/02 09:26:01;;;;;;;0.00;0.00;;;14.20;79.20;;;;;;5083925;28;20717;-38
2024/01/02 09:28:32;;;;;;;0.00;0.00;;;14.20;79.20;;;;;;5067505;28;20206;-38
2024/01/02 09:31:00;;;;;;;0.00;0.00;;;14.30;79.40;;;;;;5076553;28;20688;-39
2024/01/02 09:33:27;;;;;;;0.00;0.00;;;14.20;79.20;;;;;;5080887;28;20707;-38
2024/01/02 09:35:57;;;;;;;0.00;0.00;;;14.20;79.20;;;;;;5082594;28;20286;-39
2024/01/02 09:38:25;;;;;;;0.00;0.00;;;14.20;79.30;;;;;;5076437;28;20388;-38
2024/01/02 09:40:58;;;;;;;0.00;0.00;;;14.20;79.20;;;;;;5082145;28;20226;-39
2024/01/02 09:43:51;;;;;;;0.00;0.00;;;14.20;79.30;;;;;;5085751;28;20278;-39
2024/01/02 09:46:24;;;;;;;0.00;0.00;;;14.20;79.20;;;;;;5078636;28;20333;-38
2024/01/02 09:48:59;;;;;;;0.00;0.00;;;14.20;79.20;;;;;;5081831;28;20231;-38
2024/01/02 09:51:50;;;;;;;0.00;0.00;;;14.20;79.20;;;;;;5085328;28;20340;-38
2024/01/02 09:54:40;;;;;;;0.00;0.00;;;14.20;79.20;;;;;;5084603;28;20195;-39
2024/01/02 09:57:16;;;;;;;0.00;0.00;;;14.20;79.30;;;;;;5083901;28;20891;-39
2024/01/02 09:59:44;;;;;;;0.00;0.00;;;14.20;79.20;;;;;;5083641;28;20205;-39
2024/01/02 10:02:24;;;;;;;0.00;0.00;;;14.20;79.20;;;;;;5085434;28;20261;-38
2024/01/02 10:04:51;;;;;;;0.00;0.00;;;14.20;79.30;;;;;;5080552;28;20627;-38
2024/01/02 10:07:30;;;;;;;0.00;0.00;;;14.20;79.20;;;;;;5085186;28;20655;-38
2024/01/02 10:10:17;;;;;;;0.00;0.00;;;14.20;79.30;;;;;;5084230;28;20663;-38
2024/01/02 10:13:21;;;;;;;0.00;0.00;;;14.10;79.20;;;;;;5085176;28;20588;-39
2024/01/02 10:16:15;;;;;;;0.00;0.00;;;14.10;79.10;;;;;;5085248;28;20728;-39
2024/01/02 10:19:11;;;;;;;0.00;0.00;;;14.10;79.20;;;;;;5077312;28;20211;-40
2024/01/02 10:22:12;;;;;;;0.00;0.00;;;14.00;79.10;;;;;;5079212;28;20679;-39
2024/01/02 10:24:57;;;;;;;0.00;0.00;;;14.00;79.20;;;;;;5083007;28;20715;-39
2024/01/02 10:27:52;;;;;;;0.00;0.00;;;14.00;79.30;;;;;;5089548;28;20195;-39
2024/01/02 10:30:21;;;;;;;0.00;0.00;;;14.00;79.40;;;;;;5087225;28;20203;-39
2024/01/02 10:33:02;;;;;;;0.00;0.00;;;14.00;79.30;;;;;;5084446;28;20215;-39
2024/01/02 10:35:37;;;;;;;0.00;0.00;;;14.00;79.30;;;;;;5087679;28;20568;-38
2024/01/02 10:38:15;;;;;;;0.00;0.00;;;14.00;79.30;;;;;;5084463;28;20206;-39
2024/01/02 10:40:58;;;;;;;0.00;0.00;;;14.00;79.30;;;;;;5088346;28;20347;-39
2024/01/02 10:43:47;;;;;;;0.00;0.00;;;14.00;79.20;;;;;;5081061;28;20841;-38
2024/01/02 10:46:51;;;;;;;0.00;0.00;;;14.00;79.20;;;;;;5085085;28;20211;-40
2024/01/02 10:49:34;;;;;;;0.00;0.00;;;13.90;79.20;;;;;;5085160;28;20194;-38
2024/01/02 10:52:31;;;;;;;0.00;0.00;;;13.90;79.20;;;;;;5089377;28;20215;-39
2024/01/02 10:55:18;;;;;;;0.00;0.00;;;13.90;79.30;;;;;;5079919;28;20199;-40
2024/01/02 10:58:27;;;;;;;0.00;0.00;;;13.90;79.20;;;;;;5084018;28;20402;-38
2024/01/02 11:01:09;;;;;;;0.00;0.00;;;13.90;79.20;;;;;;5078882;28;20261;-39
2024/01/02 11:03:54;;;;;;;0.00;0.00;;;13.80;79.10;;;;;;5086383;28;20195;-38
2024/01/02 11:06:51;;;;;;;0.00;0.00;;;13.80;79.20;;;;;;5081845;28;20256;-38
2024/01/02 11:09:30;;;;;;;0.00;0.00;;;13.80;79.30;;;;;;5079571;28;20207;-39
2024/01/02 11:12:04;;;;;;;0.00;0.00;;;13.90;79.20;;;;;;5095637;28;20199;-38
2024/01/02 11:14:47;;;;;;;0.00;0.00;;;13.80;79.20;;;;;;5083015;28;20221;-39
2024/01/02 11:17:18;;;;;;;0.00;0.00;;;13.80;79.20;;;;;;5082916;28;20338;-38
2024/01/02 11:20:06;;;;;;;0.00;0.00;;;13.80;79.20;;;;;;5083528;28;20704;-38
2024/01/02 11:22:43;;;;;;;0.00;0.00;;;13.80;79.30;;;;;;5087467;28;20233;-38
2024/01/02 11:25:14;;;;;;;0.00;0.00;;;13.80;79.20;;;;;;5086071;28;20209;-38
2024/01/02 11:27:56;;;;;;;0.00;0.00;;;13.80;79.20;;;;;;5087742;28;20201;-39
2024/01/02 11:30:25;;;;;;;0.00;0.00;;;13.80;79.10;;;;;;5084266;28;20269;-38
2024/01/02 11:33:16;;;;;;;0.00;0.00;;;13.80;79.20;;;;;;5082810;28;20261;-38
2024/01/02 11:36:22;;;;;;;0.00;0.00;;;13.70;79.20;;;;;;5085490;28;20242;-37
2024/01/02 11:39:11;;;;;;;0.00;0.00;;;13.70;79.20;;;;;;5081297;28;20199;-37
2024/01/02 11:41:51;;;;;;;0.00;0.00;;;13.70;79.30;;;;;;5086682;28;20292;-35
2024/01/02 11:44:50;;;;;;;0.00;0.00;;;13.70;79.30;;;;;;5085553;28;20222;-36
2024/01/02 11:47:43;;;;;;;0.00;0.00;;;13.70;79.40;;;;;;5086939;28;20203;-37
2024/01/02 11:50:22;;;;;;;0.00;0.00;;;13.70;79.40;;;;;;5063878;28;20265;-36
2024/01/02 11:53:03;;;;;;;0.00;0.00;;;13.70;79.50;;;;;;5086113;28;20212;-36
2024/01/02 11:55:55;;;;;;;0.00;0.00;;;13.70;79.50;;;;;;5087648;28;20252;-38
2024/01/02 11:58:47;;;;;;;0.00;0.00;;;13.70;79.40;;;;;;5084502;28;20199;-36
2024/01/02 12:01:29;;;;;;;0.00;0.00;;;13.70;79.50;;;;;;5083352;28;20223;-36
2024/01/02 12:04:02;;;;;;;0.00;0.00;;;13.60;79.60;;;;;;5078588;28;20248;-35
2024/01/02 12:06:40;;;;;;;0.00;0.00;;;13.70;79.50;;;;;;5075262;28;20223;-35
2024/01/02 12:09:16;;;;;;;0.00;0.00;;;13.70;79.50;;;;;;5080305;28;20882;-36
2024/01/02 12:12:06;;;;;;;0.00;0.00;;;13.70;79.50;;;;;;5075022;28;20236;-36
2024/01/02 12:15:05;;;;;;;0.00;0.00;;;13.70;79.50;;;;;;5079934;28;20213;-36
2024/01/02 12:17:41;;;;;;;0.00;0.00;;;13.70;79.60;;;;;;5074898;28;20795;-37
2024/01/02 12:20:17;;;;;;;0.00;0.00;;;13.70;79.60;;;;;;5076574;28;20228;-35
2024/01/02 12:22:46;;;;;;;0.00;0.00;;;13.60;79.50;;;;;;5086525;28;20285;-35
2024/01/02 12:25:19;;;;;;;0.00;0.00;;;13.70;79.60;;;;;;5082855;28;20202;-37
2024/01/02 12:27:52;;;;;;;0.00;0.00;;;13.70;79.80;;;;;;5082691;28;20211;-36
2024/01/02 12:30:41;;;;;;;0.00;0.00;;;13.70;79.70;;;;;;5079337;28;20203;-36
2024/01/02 12:33:18;;;;;;;0.00;0.00;;;13.70;79.70;;;;;;5082767;28;20195;-36
2024/01/02 12:35:58;;;;;;;0.00;0.00;;;13.70;79.90;;;;;;5081697;28;20611;-39
2024/01/02 12:38:39;;;;;;;0.00;0.00;;;13.70;79.80;;;;;;5085654;28;20217;-36
2024/01/02 12:41:14;;;;;;;0.00;0.00;;;13.70;79.90;;;;;;5083492;28;20223;-37
2024/01/02 12:43:44;;;;;;;0.00;0.00;;;13.70;79.80;;;;;;5084969;28;20213;-37
2024/01/02 12:46:19;;;;;;;0.00;0.00;;;13.70;79.90;;;;;;5087155;28;20623;-37
2024/01/02 12:49:09;;;;;;;0.00;0.00;;;13.70;80.00;;;;;;5084865;28;20677;-38
2024/01/02 12:51:46;;;;;;;0.00;0.00;;;13.70;80.00;;;;;;5084610;28;20606;-39
2024/01/02 12:54:19;;;;;;;0.00;0.00;;;13.80;80.30;;;;;;5074228;28;20735;-39
2024/01/02 12:57:01;;;;;;;0.00;0.00;;;13.70;80.00;;;;;;5085716;28;20708;-40
2024/01/02 12:59:33;;;;;;;0.00;0.00;;;13.80;80.10;;;;;;5086448;28;20676;-40
2024/01/02 13:02:06;;;;;;;0.00;0.00;;;13.80;80.10;;;;;;5097680;28;20227;-38
2024/01/02 13:04:36;;;;;;;0.00;0.00;;;13.80;80.10;;;;;;5080916;28;20194;-38
2024/01/02 13:07:11;;;;;;;0.00;0.00;;;13.80;80.00;;;;;;5078147;28;20652;-39
2024/01/02 13:09:42;;;;;;;0.00;0.00;;;13.90;80.10;;;;;;5081494;28;20264;-38
2024/01/02 13:12:12;;;;;;;0.00;0.00;;;13.90;80.30;;;;;;5080992;28;20217;-38
2024/01/02 13:14:45;;;;;;;0.00;0.00;;;13.90;80.20;;;;;;5081990;28;20209;-38